createdAt,value
2018-07-13T00:00:49.385Z,972.2
2018-07-13T00:01:51.061Z,972.2
2018-07-13T00:02:52.726Z,972.2
2018-07-13T00:03:54.386Z,972.2
2018-07-13T00:04:56.049Z,972.2
2018-07-13T00:05:57.703Z,972.2
2018-07-13T00:06:59.368Z,972.2
2018-07-13T00:08:01.030Z,972.1
2018-07-13T00:09:02.697Z,972.2
2018-07-13T00:10:04.361Z,972.2
2018-07-13T00:11:06.049Z,972.2
2018-07-13T00:12:07.717Z,972.2
2018-07-13T00:13:09.376Z,972.2
2018-07-13T00:14:11.050Z,972.2
2018-07-13T00:15:12.718Z,972.2
2018-07-13T00:16:14.384Z,972.2
2018-07-13T00:17:16.054Z,972.2
2018-07-13T00:18:17.719Z,972.2
2018-07-13T00:19:19.388Z,972.2
2018-07-13T00:20:21.048Z,972.2
2018-07-13T00:21:22.721Z,972.2
2018-07-13T00:22:24.384Z,972.2
2018-07-13T00:23:26.049Z,972.2
2018-07-13T00:24:27.713Z,972.3
2018-07-13T00:25:29.385Z,972.2
2018-07-13T00:26:31.052Z,972.2
2018-07-13T00:27:32.710Z,972.3
2018-07-13T00:28:34.376Z,972.3
2018-07-13T00:29:36.044Z,972.3
2018-07-13T00:30:37.707Z,972.3
2018-07-13T00:31:39.376Z,972.3
2018-07-13T00:32:41.044Z,972.3
2018-07-13T00:33:42.721Z,972.3
2018-07-13T00:34:44.379Z,972.3
2018-07-13T00:35:46.043Z,972.3
2018-07-13T00:36:47.721Z,972.3
2018-07-13T00:37:49.388Z,972.3
2018-07-13T00:38:51.056Z,972.2
2018-07-13T00:39:52.747Z,972.2
2018-07-13T00:40:54.380Z,972.2
2018-07-13T00:41:56.043Z,972.2
2018-07-13T00:42:57.726Z,972.2
2018-07-13T00:43:59.390Z,972.2
2018-07-13T00:45:01.046Z,972.2
2018-07-13T00:46:02.714Z,972.2
2018-07-13T00:47:04.376Z,972.2
2018-07-13T00:48:06.073Z,972.2
2018-07-13T00:49:07.742Z,972.2
2018-07-13T00:50:09.415Z,972.2
2018-07-13T00:51:11.090Z,972.2
2018-07-13T00:52:12.754Z,972.2
2018-07-13T00:53:14.423Z,972.2
2018-07-13T00:54:16.086Z,972.2
2018-07-13T00:55:17.766Z,972.3
2018-07-13T00:56:19.403Z,972.2
2018-07-13T00:57:21.087Z,972.2
2018-07-13T00:58:22.746Z,972.3
2018-07-13T00:59:24.415Z,972.3
2018-07-13T01:00:26.150Z,972.2
2018-07-13T01:01:27.809Z,972.2
2018-07-13T01:02:29.479Z,972.2
2018-07-13T01:03:31.141Z,972.2
2018-07-13T01:04:32.796Z,972.3
2018-07-13T01:05:34.463Z,972.3
2018-07-13T01:06:36.135Z,972.3
2018-07-13T01:07:37.805Z,972.3
2018-07-13T01:08:39.483Z,972.3
2018-07-13T01:09:41.149Z,972.3
2018-07-13T01:10:42.819Z,972.4
2018-07-13T01:11:44.484Z,972.4
2018-07-13T01:12:46.145Z,972.4
2018-07-13T01:13:47.825Z,972.4
2018-07-13T01:14:49.488Z,972.4
2018-07-13T01:15:51.155Z,972.4
2018-07-13T01:16:52.819Z,972.4
2018-07-13T01:17:54.489Z,972.4
2018-07-13T01:18:56.145Z,972.4
2018-07-13T01:19:57.823Z,972.4
2018-07-13T01:20:59.484Z,972.4
2018-07-13T01:22:01.172Z,972.4
2018-07-13T01:23:02.831Z,972.3
2018-07-13T01:24:04.494Z,972.3
2018-07-13T01:25:06.192Z,972.3
2018-07-13T01:26:07.849Z,972.4
2018-07-13T01:27:09.511Z,972.4
2018-07-13T01:28:11.176Z,972.4
2018-07-13T01:29:12.842Z,972.4
2018-07-13T01:30:14.505Z,972.3
2018-07-13T01:31:16.169Z,972.3
2018-07-13T01:32:17.827Z,972.4
2018-07-13T01:33:19.488Z,972.3
2018-07-13T01:34:21.148Z,972.3
2018-07-13T01:35:22.821Z,972.3
2018-07-13T01:36:24.486Z,972.3
2018-07-13T01:37:26.170Z,972.3
2018-07-13T01:38:27.828Z,972.3
2018-07-13T01:39:29.499Z,972.3
2018-07-13T01:40:31.168Z,972.3
2018-07-13T01:41:32.830Z,972.3
2018-07-13T01:42:34.493Z,972.3
2018-07-13T01:43:36.184Z,972.4
2018-07-13T01:44:37.894Z,972.3
2018-07-13T01:45:39.555Z,972.4
2018-07-13T01:46:41.219Z,972.4
2018-07-13T01:47:42.879Z,972.4
2018-07-13T01:48:44.549Z,972.4
2018-07-13T01:49:46.211Z,972.3
2018-07-13T01:50:47.885Z,972.4
2018-07-13T01:51:49.546Z,972.3
2018-07-13T01:52:51.202Z,972.3
2018-07-13T01:53:52.865Z,972.3
2018-07-13T01:54:54.542Z,972.4
2018-07-13T02:01:04.781Z,972.3
2018-07-13T02:02:06.460Z,972.4
2018-07-13T02:03:58.433Z,972.4
2018-07-13T02:05:00.095Z,972.4
2018-07-13T02:06:52.128Z,972.4
2018-07-13T02:07:53.783Z,972.4
2018-07-13T02:09:45.701Z,972.4
2018-07-13T02:10:47.359Z,972.4
2018-07-13T02:12:39.299Z,972.4
2018-07-13T02:13:40.963Z,972.4
2018-07-13T02:15:32.944Z,972.3
2018-07-13T02:16:34.604Z,972.4
2018-07-13T02:17:36.272Z,972.4
2018-07-13T02:18:37.935Z,972.4
2018-07-13T02:19:39.600Z,972.4
2018-07-13T02:20:41.264Z,972.4
2018-07-13T02:21:42.944Z,972.4
2018-07-13T02:22:44.601Z,972.4
2018-07-13T02:23:46.266Z,972.5
2018-07-13T02:24:47.924Z,972.5
2018-07-13T02:25:49.588Z,972.5
2018-07-13T02:26:51.256Z,972.5
2018-07-13T02:27:52.923Z,972.5
2018-07-13T02:28:54.592Z,972.5
2018-07-13T02:29:56.255Z,972.5
2018-07-13T02:30:57.909Z,972.5
2018-07-13T02:31:59.580Z,972.5
2018-07-13T02:33:01.254Z,972.5
2018-07-13T02:34:02.912Z,972.5
2018-07-13T02:35:04.574Z,972.5
2018-07-13T02:36:06.271Z,972.5
2018-07-13T02:37:07.926Z,972.6
2018-07-13T02:38:09.591Z,972.6
2018-07-13T02:39:11.301Z,972.6
2018-07-13T02:40:12.877Z,972.5
2018-07-13T02:41:14.573Z,972.6
2018-07-13T02:42:16.244Z,972.5
2018-07-13T02:43:17.911Z,972.6
2018-07-13T02:44:19.591Z,972.6
2018-07-13T02:45:21.249Z,972.6
2018-07-13T02:46:22.919Z,972.6
2018-07-13T02:47:24.577Z,972.6
2018-07-13T02:48:26.244Z,972.6
2018-07-13T02:49:27.913Z,972.6
2018-07-13T02:50:29.581Z,972.6
2018-07-13T02:51:31.242Z,972.6
2018-07-13T02:52:32.907Z,972.6
2018-07-13T02:53:34.574Z,972.5
2018-07-13T02:54:36.243Z,972.5
2018-07-13T02:55:37.900Z,972.5
2018-07-13T02:56:39.561Z,972.6
2018-07-13T02:57:41.237Z,972.6
2018-07-13T02:58:42.896Z,972.6
2018-07-13T02:59:44.562Z,972.6
2018-07-13T03:00:46.221Z,972.6
2018-07-13T03:01:47.888Z,972.7
2018-07-13T03:02:49.550Z,972.7
2018-07-13T03:03:51.214Z,972.7
2018-07-13T03:04:52.882Z,972.7
2018-07-13T03:05:54.554Z,972.7
2018-07-13T03:06:56.216Z,972.7
2018-07-13T03:07:57.883Z,972.8
2018-07-13T03:08:59.540Z,972.8
2018-07-13T03:10:01.211Z,972.8
2018-07-13T03:11:02.878Z,972.8
2018-07-13T03:12:04.540Z,972.7
2018-07-13T03:13:06.228Z,972.7
2018-07-13T03:14:07.902Z,972.8
2018-07-13T03:15:09.558Z,972.7
2018-07-13T03:16:11.224Z,972.7
2018-07-13T03:17:12.892Z,972.7
2018-07-13T03:18:14.563Z,972.7
2018-07-13T03:19:16.236Z,972.8
2018-07-13T03:20:17.895Z,972.8
2018-07-13T03:21:19.558Z,972.8
2018-07-13T03:22:21.229Z,972.8
2018-07-13T03:23:22.887Z,972.7
2018-07-13T03:24:24.560Z,972.7
2018-07-13T03:25:26.217Z,972.8
2018-07-13T03:26:27.885Z,972.7
2018-07-13T03:27:29.568Z,972.7
2018-07-13T03:28:31.227Z,972.7
2018-07-13T03:29:32.896Z,972.8
2018-07-13T03:30:34.569Z,972.7
2018-07-13T03:31:36.239Z,972.7
2018-07-13T03:32:37.916Z,972.7
2018-07-13T03:33:39.590Z,972.8
2018-07-13T03:34:41.255Z,972.7
2018-07-13T03:35:42.917Z,972.7
2018-07-13T03:36:44.589Z,972.7
2018-07-13T03:37:46.259Z,972.8
2018-07-13T03:38:47.913Z,972.8
2018-07-13T03:39:49.577Z,972.8
2018-07-13T03:40:51.282Z,972.8
2018-07-13T03:41:52.967Z,972.8
2018-07-13T03:42:54.630Z,972.8
2018-07-13T03:43:56.302Z,972.7
2018-07-13T03:44:57.957Z,972.8
2018-07-13T03:45:59.620Z,972.8
2018-07-13T03:47:01.289Z,972.8
2018-07-13T03:48:02.947Z,972.8
2018-07-13T03:49:04.616Z,972.8
2018-07-13T03:50:06.312Z,972.8
2018-07-13T03:51:07.993Z,972.7
2018-07-13T03:52:09.668Z,972.8
2018-07-13T03:53:11.329Z,972.8
2018-07-13T03:54:13.030Z,972.8
2018-07-13T03:55:14.681Z,972.8
2018-07-13T03:56:16.353Z,972.8
2018-07-13T03:57:18.015Z,972.9
2018-07-13T03:58:19.683Z,972.8
2018-07-13T03:59:21.362Z,972.9
2018-07-13T04:00:23.070Z,972.9
2018-07-13T04:01:24.696Z,972.9
2018-07-13T04:02:26.370Z,972.8
2018-07-13T04:03:28.039Z,972.8
2018-07-13T04:04:29.701Z,972.9
2018-07-13T04:05:31.373Z,972.9
2018-07-13T04:06:33.055Z,972.9
2018-07-13T04:07:34.702Z,972.9
2018-07-13T04:08:36.375Z,972.8
2018-07-13T04:09:38.038Z,972.8
2018-07-13T04:10:39.702Z,972.8
2018-07-13T04:11:41.367Z,972.9
2018-07-13T04:12:43.036Z,972.8
2018-07-13T04:13:44.706Z,972.8
2018-07-13T04:14:46.460Z,972.8
2018-07-13T04:15:48.002Z,972.9
2018-07-13T04:16:49.675Z,972.8
2018-07-13T04:17:51.343Z,972.8
2018-07-13T04:18:53.012Z,972.8
2018-07-13T04:19:55.076Z,972.8
2018-07-13T04:20:56.791Z,972.8
2018-07-13T04:21:58.455Z,972.8
2018-07-13T04:23:00.137Z,972.8
2018-07-13T04:24:01.914Z,972.8
2018-07-13T04:25:03.586Z,972.8
2018-07-13T04:26:05.258Z,972.8
2018-07-13T04:27:06.942Z,972.8
2018-07-13T04:28:08.624Z,972.8
2018-07-13T04:29:10.306Z,972.8
2018-07-13T04:30:11.980Z,972.8
2018-07-13T04:31:13.649Z,972.9
2018-07-13T04:32:15.317Z,972.8
2018-07-13T04:33:16.993Z,972.9
2018-07-13T04:34:18.682Z,972.8
2018-07-13T04:35:20.331Z,972.8
2018-07-13T04:36:22.010Z,972.8
2018-07-13T04:37:23.681Z,972.8
2018-07-13T04:38:25.363Z,972.9
2018-07-13T04:39:27.030Z,972.9
2018-07-13T04:40:28.699Z,972.9
2018-07-13T04:41:30.368Z,972.9
2018-07-13T04:42:32.042Z,972.8
2018-07-13T04:43:33.718Z,972.9
2018-07-13T04:44:35.452Z,972.9
2018-07-13T04:45:37.120Z,972.9
2018-07-13T04:46:38.791Z,972.9
2018-07-13T04:47:40.468Z,972.9
2018-07-13T04:48:42.135Z,972.9
2018-07-13T04:49:43.813Z,972.9
2018-07-13T04:50:45.482Z,972.8
2018-07-13T04:51:47.144Z,972.9
2018-07-13T04:52:48.808Z,972.9
2018-07-13T04:53:50.471Z,972.9
2018-07-13T04:54:52.138Z,972.9
2018-07-13T04:55:53.812Z,972.9
2018-07-13T04:56:55.478Z,972.9
2018-07-13T04:57:57.152Z,972.9
2018-07-13T04:58:58.819Z,972.9
2018-07-13T05:00:00.497Z,972.9
2018-07-13T05:01:02.182Z,972.9
2018-07-13T05:02:03.863Z,972.9
2018-07-13T05:03:05.555Z,972.9
2018-07-13T05:04:07.219Z,973.0
2018-07-13T05:05:08.896Z,972.9
2018-07-13T05:06:10.642Z,973.0
2018-07-13T05:07:12.249Z,973.0
2018-07-13T05:08:13.926Z,973.0
2018-07-13T05:09:15.589Z,973.0
2018-07-13T05:10:17.264Z,973.0
2018-07-13T05:11:18.936Z,973.0
2018-07-13T05:12:20.622Z,973.0
2018-07-13T05:13:22.327Z,973.0
2018-07-13T05:14:23.998Z,973.0
2018-07-13T05:15:25.667Z,973.0
2018-07-13T05:16:27.344Z,972.9
2018-07-13T05:17:29.024Z,973.0
2018-07-13T05:18:30.697Z,973.0
2018-07-13T05:19:32.368Z,973.0
2018-07-13T05:20:34.089Z,973.0
2018-07-13T05:21:35.769Z,973.0
2018-07-13T05:22:37.441Z,973.0
2018-07-13T05:23:39.105Z,973.0
2018-07-13T05:24:40.778Z,973.0
2018-07-13T05:25:42.470Z,973.0
2018-07-13T05:26:44.143Z,972.9
2018-07-13T05:27:45.814Z,973.0
2018-07-13T05:28:47.485Z,973.0
2018-07-13T05:29:49.157Z,973.0
2018-07-13T05:30:50.912Z,973.0
2018-07-13T05:31:52.508Z,973.1
2018-07-13T05:32:54.184Z,973.0
2018-07-13T05:33:55.864Z,973.0
2018-07-13T05:34:57.540Z,973.1
2018-07-13T05:35:59.211Z,973.0
2018-07-13T05:37:00.887Z,973.0
2018-07-13T05:38:02.558Z,973.0
2018-07-13T05:39:04.247Z,973.1
2018-07-13T05:40:05.967Z,973.1
2018-07-13T05:41:07.643Z,973.1
2018-07-13T05:42:09.319Z,973.1
2018-07-13T05:43:10.995Z,973.1
2018-07-13T05:44:12.671Z,973.1
2018-07-13T05:45:14.346Z,973.1
2018-07-13T05:46:16.016Z,973.1
2018-07-13T05:47:17.688Z,973.1
2018-07-13T05:48:19.358Z,973.2
2018-07-13T05:49:21.032Z,973.1
2018-07-13T05:50:22.701Z,973.1
2018-07-13T05:51:24.380Z,973.1
2018-07-13T05:52:26.068Z,973.1
2018-07-13T05:53:27.742Z,973.1
2018-07-13T05:54:29.425Z,973.1
2018-07-13T05:55:31.100Z,973.1
2018-07-13T06:01:53.647Z,973.1
2018-07-13T06:02:55.321Z,973.1
2018-07-13T06:04:47.220Z,973.1
2018-07-13T06:05:48.911Z,973.1
2018-07-13T06:06:50.579Z,973.1
2018-07-13T06:07:52.260Z,973.1
2018-07-13T06:08:53.953Z,973.1
2018-07-13T06:09:55.639Z,973.1
2018-07-13T06:10:57.307Z,973.1
2018-07-13T06:11:58.986Z,973.1
2018-07-13T06:13:00.675Z,973.2
2018-07-13T06:14:02.351Z,973.2
2018-07-13T06:15:04.072Z,973.2
2018-07-13T06:16:05.719Z,973.1
2018-07-13T06:17:07.392Z,973.1
2018-07-13T06:18:09.071Z,973.1
2018-07-13T06:19:10.749Z,973.2
2018-07-13T06:20:12.426Z,973.2
2018-07-13T06:21:14.125Z,973.2
2018-07-13T06:22:15.803Z,973.2
2018-07-13T06:23:17.481Z,973.2
2018-07-13T06:24:19.204Z,973.2
2018-07-13T06:25:20.845Z,973.2
2018-07-13T06:26:22.555Z,973.2
2018-07-13T06:27:24.228Z,973.2
2018-07-13T06:28:25.909Z,973.2
2018-07-13T06:29:27.595Z,973.2
2018-07-13T06:30:29.282Z,973.2
2018-07-13T06:31:31.031Z,973.2
2018-07-13T06:32:32.638Z,973.2
2018-07-13T06:33:34.320Z,973.2
2018-07-13T06:34:36.525Z,973.2
2018-07-13T06:35:38.200Z,973.2
2018-07-13T06:36:39.872Z,973.3
2018-07-13T06:37:41.549Z,973.3
2018-07-13T06:38:43.233Z,973.2
2018-07-13T06:39:44.927Z,973.3
2018-07-13T06:40:46.604Z,973.3
2018-07-13T06:41:48.277Z,973.3
2018-07-13T06:42:49.961Z,973.3
2018-07-13T06:43:51.647Z,973.2
2018-07-13T06:44:53.497Z,973.2
2018-07-13T06:45:55.018Z,973.2
2018-07-13T06:46:56.700Z,973.2
2018-07-13T06:47:58.387Z,973.2
2018-07-13T06:49:00.054Z,973.2
2018-07-13T06:50:01.743Z,973.2
2018-07-13T06:51:03.424Z,973.2
2018-07-13T06:52:05.160Z,973.2
2018-07-13T06:53:06.836Z,973.2
2018-07-13T06:54:08.522Z,973.2
2018-07-13T06:55:10.200Z,973.2
2018-07-13T06:56:11.879Z,973.2
2018-07-13T06:57:13.561Z,973.3
2018-07-13T06:58:16.181Z,973.3
2018-07-13T06:59:17.911Z,973.3
2018-07-13T07:00:19.592Z,973.3
2018-07-13T07:01:21.282Z,973.3
2018-07-13T07:02:23.177Z,973.3
2018-07-13T07:03:24.871Z,973.3
2018-07-13T07:04:26.557Z,973.3
2018-07-13T07:05:28.233Z,973.2
2018-07-13T07:06:29.929Z,973.3
2018-07-13T07:07:31.630Z,973.3
2018-07-13T07:08:33.289Z,973.3
2018-07-13T07:09:34.978Z,973.3
2018-07-13T07:10:36.665Z,973.3
2018-07-13T07:11:38.344Z,973.3
2018-07-13T07:12:40.023Z,973.3
2018-07-13T07:13:41.743Z,973.3
2018-07-13T07:14:43.424Z,973.3
2018-07-13T07:15:45.121Z,973.3
2018-07-13T07:16:46.801Z,973.3
2018-07-13T07:17:48.560Z,973.3
2018-07-13T07:18:50.183Z,973.4
2018-07-13T07:19:51.871Z,973.3
2018-07-13T07:20:53.557Z,973.3
2018-07-13T07:21:55.246Z,973.3
2018-07-13T07:22:56.936Z,973.3
2018-07-13T07:23:58.617Z,973.3
2018-07-13T07:25:00.296Z,973.3
2018-07-13T07:26:01.979Z,973.3
2018-07-13T07:27:03.665Z,973.3
2018-07-13T07:28:05.353Z,973.3
2018-07-13T07:29:07.039Z,973.3
2018-07-13T07:30:08.723Z,973.3
2018-07-13T07:31:10.415Z,973.3
2018-07-13T07:32:12.092Z,973.3
2018-07-13T07:33:13.788Z,973.3
2018-07-13T07:34:15.505Z,973.4
2018-07-13T07:35:17.201Z,973.4
2018-07-13T07:36:18.886Z,973.3
2018-07-13T07:37:20.570Z,973.3
2018-07-13T07:38:22.277Z,973.3
2018-07-13T07:39:23.947Z,973.4
2018-07-13T07:40:25.636Z,973.4
2018-07-13T07:41:27.320Z,973.4
2018-07-13T07:42:29.003Z,973.4
2018-07-13T07:43:30.689Z,973.4
2018-07-13T07:44:32.386Z,973.4
2018-07-13T07:45:34.071Z,973.4
2018-07-13T07:46:35.760Z,973.4
2018-07-13T07:47:37.449Z,973.4
2018-07-13T07:48:39.129Z,973.4
2018-07-13T07:49:40.817Z,973.4
2018-07-13T07:50:42.500Z,973.3
2018-07-13T07:51:44.191Z,973.4
2018-07-13T07:52:45.883Z,973.4
2018-07-13T07:53:48.106Z,973.4
2018-07-13T07:54:49.808Z,973.4
2018-07-13T07:55:51.491Z,973.4
2018-07-13T07:56:53.172Z,973.4
2018-07-13T07:57:54.866Z,973.4
2018-07-13T07:58:56.549Z,973.4
2018-07-13T07:59:58.242Z,973.4
2018-07-13T08:00:59.926Z,973.4
2018-07-13T08:02:01.610Z,973.4
2018-07-13T08:03:03.289Z,973.4
2018-07-13T08:04:04.981Z,973.3
2018-07-13T08:05:06.657Z,973.5
2018-07-13T08:06:08.424Z,973.4
2018-07-13T08:07:10.530Z,973.5
2018-07-13T08:08:12.129Z,973.5
2018-07-13T08:09:13.816Z,973.4
2018-07-13T08:10:15.510Z,973.4
2018-07-13T08:11:17.197Z,973.4
2018-07-13T08:12:18.876Z,973.4
2018-07-13T08:13:20.565Z,973.5
2018-07-13T08:14:22.308Z,973.5
2018-07-13T08:15:23.932Z,973.5
2018-07-13T08:16:25.618Z,973.4
2018-07-13T08:17:27.309Z,973.4
2018-07-13T08:18:29.007Z,973.5
2018-07-13T08:19:30.701Z,973.4
2018-07-13T08:20:32.399Z,973.4
2018-07-13T08:21:34.092Z,973.4
2018-07-13T08:22:35.777Z,973.4
2018-07-13T08:23:37.483Z,973.3
2018-07-13T08:24:39.177Z,973.4
2018-07-13T08:25:40.858Z,973.4
2018-07-13T08:26:42.590Z,973.4
2018-07-13T08:27:44.256Z,973.4
2018-07-13T08:28:45.950Z,973.3
2018-07-13T08:29:47.652Z,973.3
2018-07-13T08:30:49.345Z,973.3
2018-07-13T08:31:51.034Z,973.3
2018-07-13T08:32:52.716Z,973.3
2018-07-13T08:33:54.476Z,973.3
2018-07-13T08:34:56.164Z,973.4
2018-07-13T08:35:57.908Z,973.3
2018-07-13T08:36:59.612Z,973.3
2018-07-13T08:38:01.313Z,973.3
2018-07-13T08:39:03.019Z,973.3
2018-07-13T08:40:04.704Z,973.3
2018-07-13T08:41:06.430Z,973.3
2018-07-13T08:42:08.128Z,973.3
2018-07-13T08:43:09.813Z,973.3
2018-07-13T08:44:11.588Z,973.4
2018-07-13T08:45:13.276Z,973.3
2018-07-13T08:46:14.967Z,973.4
2018-07-13T08:47:16.646Z,973.4
2018-07-13T08:48:18.327Z,973.4
2018-07-13T08:49:20.013Z,973.4
2018-07-13T08:50:21.721Z,973.4
2018-07-13T08:51:23.462Z,973.4
2018-07-13T08:52:25.091Z,973.4
2018-07-13T08:53:26.774Z,973.4
2018-07-13T08:54:28.457Z,973.4
2018-07-13T08:55:30.185Z,973.4
2018-07-13T08:56:31.836Z,973.4
2018-07-13T08:57:33.525Z,973.4
2018-07-13T08:58:35.214Z,973.4
2018-07-13T08:59:36.900Z,973.4
2018-07-13T09:00:38.586Z,973.5
2018-07-13T09:01:40.405Z,973.4
2018-07-13T09:02:42.227Z,973.4
2018-07-13T09:03:43.924Z,973.4
2018-07-13T09:04:45.635Z,973.4
2018-07-13T09:05:47.306Z,973.5
2018-07-13T09:06:48.948Z,973.5
2018-07-13T09:07:50.641Z,973.5
2018-07-13T09:08:52.339Z,973.5
2018-07-13T09:09:54.099Z,973.6
2018-07-13T09:10:55.789Z,973.4
2018-07-13T09:11:57.487Z,973.5
2018-07-13T09:12:59.212Z,973.4
2018-07-13T09:14:00.814Z,973.5
2018-07-13T09:15:02.507Z,973.6
2018-07-13T09:16:04.194Z,973.6
2018-07-13T09:17:05.921Z,973.7
2018-07-13T09:18:07.622Z,973.6
2018-07-13T09:19:09.326Z,973.5
2018-07-13T09:20:11.016Z,973.4
2018-07-13T09:21:12.707Z,973.4
2018-07-13T09:22:14.489Z,973.4
2018-07-13T09:23:16.183Z,973.3
2018-07-13T09:24:17.863Z,973.3
2018-07-13T09:25:19.550Z,973.3
2018-07-13T09:26:21.242Z,973.5
2018-07-13T09:27:22.930Z,973.5
2018-07-13T09:28:24.618Z,973.5
2018-07-13T09:29:26.312Z,973.5
2018-07-13T09:30:28.026Z,973.5
2018-07-13T09:31:29.753Z,973.6
2018-07-13T09:32:31.438Z,973.5
2018-07-13T09:33:33.149Z,973.5
2018-07-13T09:34:34.837Z,973.5
2018-07-13T09:35:36.512Z,973.6
2018-07-13T09:36:38.202Z,973.5
2018-07-13T09:37:39.891Z,973.5
2018-07-13T09:38:41.578Z,973.5
2018-07-13T09:39:43.291Z,973.5
2018-07-13T09:40:44.991Z,973.5
2018-07-13T09:41:46.673Z,973.6
2018-07-13T09:42:48.360Z,973.5
2018-07-13T09:43:50.060Z,973.5
2018-07-13T09:44:51.747Z,973.6
2018-07-13T09:45:53.436Z,973.5
2018-07-13T09:46:55.228Z,973.5
2018-07-13T09:47:56.837Z,973.5
2018-07-13T09:48:58.524Z,973.5
2018-07-13T09:50:00.204Z,973.5
2018-07-13T09:51:01.900Z,973.5
2018-07-13T09:52:03.601Z,973.6
2018-07-13T09:53:05.314Z,973.6
2018-07-13T09:54:07.060Z,973.5
2018-07-13T09:55:08.701Z,973.6
2018-07-13T10:01:27.161Z,973.6
2018-07-13T10:02:28.851Z,973.6
2018-07-13T10:04:20.853Z,973.6
2018-07-13T10:05:22.545Z,973.6
2018-07-13T10:07:14.506Z,973.6
2018-07-13T10:08:16.278Z,973.6
2018-07-13T10:09:17.963Z,973.6
2018-07-13T10:10:19.659Z,973.6
2018-07-13T10:11:21.351Z,973.7
2018-07-13T10:12:23.061Z,973.7
2018-07-13T10:13:24.802Z,973.7
2018-07-13T10:14:26.443Z,973.7
2018-07-13T10:15:28.131Z,973.7
2018-07-13T10:16:29.834Z,973.6
2018-07-13T10:17:31.537Z,973.7
2018-07-13T10:18:33.222Z,973.7
2018-07-13T10:19:34.914Z,973.6
2018-07-13T10:20:36.700Z,973.6
2018-07-13T10:21:38.328Z,973.6
2018-07-13T10:22:40.027Z,973.6
2018-07-13T10:23:41.720Z,973.6
2018-07-13T10:24:43.410Z,973.7
2018-07-13T10:25:45.097Z,973.6
2018-07-13T10:26:46.793Z,973.7
2018-07-13T10:27:48.493Z,973.7
2018-07-13T10:28:50.184Z,973.6
2018-07-13T10:29:51.876Z,973.7
2018-07-13T10:30:53.562Z,973.7
2018-07-13T10:31:55.262Z,973.7
2018-07-13T10:32:56.952Z,973.6
2018-07-13T10:33:58.639Z,973.7
2018-07-13T10:35:00.339Z,973.6
2018-07-13T10:36:02.043Z,973.7
2018-07-13T10:37:03.733Z,973.6
2018-07-13T10:38:05.444Z,973.6
2018-07-13T10:39:07.198Z,973.6
2018-07-13T10:40:09.015Z,973.6
2018-07-13T10:41:10.927Z,973.7
2018-07-13T10:42:12.635Z,973.6
2018-07-13T10:43:14.318Z,973.6
2018-07-13T10:44:16.007Z,973.7
2018-07-13T10:45:17.710Z,973.6
2018-07-13T10:46:19.401Z,973.7
2018-07-13T10:47:21.085Z,973.7
2018-07-13T10:48:22.796Z,973.6
2018-07-13T10:49:24.494Z,973.6
2018-07-13T10:50:26.181Z,973.6
2018-07-13T10:51:27.904Z,973.6
2018-07-13T10:52:29.569Z,973.7
2018-07-13T10:53:31.265Z,973.6
2018-07-13T10:54:32.966Z,973.6
2018-07-13T10:55:34.649Z,973.6
2018-07-13T10:56:36.348Z,973.6
2018-07-13T10:57:38.040Z,973.6
2018-07-13T10:58:39.819Z,973.6
2018-07-13T10:59:41.433Z,973.5
2018-07-13T11:00:43.194Z,973.5
2018-07-13T11:01:44.897Z,973.5
2018-07-13T11:02:46.590Z,973.5
2018-07-13T11:03:48.329Z,973.5
2018-07-13T11:04:50.022Z,973.5
2018-07-13T11:05:51.735Z,973.5
2018-07-13T11:06:53.446Z,973.5
2018-07-13T11:07:55.164Z,973.5
2018-07-13T11:08:56.843Z,973.4
2018-07-13T11:09:58.545Z,973.5
2018-07-13T11:11:00.242Z,973.4
2018-07-13T11:12:01.935Z,973.4
2018-07-13T11:13:03.641Z,973.4
2018-07-13T11:14:05.394Z,973.4
2018-07-13T11:15:07.023Z,973.5
2018-07-13T11:16:08.721Z,973.5
2018-07-13T11:17:10.414Z,973.5
2018-07-13T11:18:12.105Z,973.5
2018-07-13T11:19:13.796Z,973.5
2018-07-13T11:20:15.491Z,973.4
2018-07-13T11:21:17.299Z,973.5
2018-07-13T11:22:19.009Z,973.5
2018-07-13T11:23:20.717Z,973.5
2018-07-13T11:24:22.487Z,973.5
2018-07-13T11:25:24.194Z,973.5
2018-07-13T11:26:25.918Z,973.5
2018-07-13T11:27:27.586Z,973.4
2018-07-13T11:28:29.983Z,973.4
2018-07-13T11:29:31.668Z,973.4
2018-07-13T11:30:33.369Z,973.4
2018-07-13T11:31:35.115Z,973.4
2018-07-13T11:32:39.217Z,973.4
2018-07-13T11:33:40.990Z,973.4
2018-07-13T11:34:42.686Z,973.4
2018-07-13T11:35:44.467Z,973.4
2018-07-13T11:36:46.253Z,973.4
2018-07-13T11:37:47.924Z,973.4
2018-07-13T11:38:49.617Z,973.4
2018-07-13T11:39:51.311Z,973.4
2018-07-13T11:40:53.011Z,973.4
2018-07-13T11:41:54.785Z,973.4
2018-07-13T11:42:56.464Z,973.4
2018-07-13T11:43:58.443Z,973.4
2018-07-13T11:45:00.135Z,973.4
2018-07-13T11:46:01.971Z,973.4
2018-07-13T11:47:03.760Z,973.4
2018-07-13T11:48:05.535Z,973.4
2018-07-13T11:49:07.243Z,973.4
2018-07-13T11:50:08.938Z,973.4
2018-07-13T11:51:11.517Z,973.4
2018-07-13T11:52:13.504Z,973.5
2018-07-13T11:53:15.236Z,973.4
2018-07-13T11:54:17.192Z,973.4
2018-07-13T11:55:18.946Z,973.3
2018-07-13T11:56:20.716Z,973.3
2018-07-13T11:57:22.411Z,973.4
2018-07-13T11:58:24.139Z,973.3
2018-07-13T11:59:25.828Z,973.3
2018-07-13T12:00:27.549Z,973.3
2018-07-13T12:01:29.448Z,973.4
2018-07-13T12:02:31.187Z,973.3
2018-07-13T12:03:35.790Z,973.4
2018-07-13T12:04:42.111Z,973.3
2018-07-13T12:05:43.804Z,973.3
2018-07-13T12:06:45.490Z,973.2
2018-07-13T12:07:47.250Z,973.1
2018-07-13T12:08:48.880Z,973.2
2018-07-13T12:09:50.585Z,973.2
2018-07-13T12:10:52.275Z,973.1
2018-07-13T12:11:53.990Z,973.1
2018-07-13T12:12:55.675Z,973.1
2018-07-13T12:13:57.365Z,973.2
2018-07-13T12:14:59.094Z,973.2
2018-07-13T12:16:00.784Z,973.3
2018-07-13T12:17:02.467Z,973.3
2018-07-13T12:18:04.155Z,973.3
2018-07-13T12:19:05.893Z,973.3
2018-07-13T12:20:07.582Z,973.3
2018-07-13T12:21:09.270Z,973.3
2018-07-13T12:22:10.956Z,973.2
2018-07-13T12:23:12.684Z,973.2
2018-07-13T12:24:14.334Z,973.3
2018-07-13T12:25:16.028Z,973.3
2018-07-13T12:26:17.721Z,973.3
2018-07-13T12:27:19.421Z,973.2
2018-07-13T12:28:21.111Z,973.3
2018-07-13T12:29:22.801Z,973.2
2018-07-13T12:30:24.497Z,973.3
2018-07-13T12:31:26.185Z,973.3
2018-07-13T12:32:27.930Z,973.3
2018-07-13T12:33:29.559Z,973.3
2018-07-13T12:34:31.262Z,973.3
2018-07-13T12:35:32.976Z,973.3
2018-07-13T12:36:34.654Z,973.3
2018-07-13T12:37:36.344Z,973.3
2018-07-13T12:38:38.041Z,973.2
2018-07-13T12:39:39.805Z,973.2
2018-07-13T12:40:41.415Z,973.2
2018-07-13T12:41:43.102Z,973.2
2018-07-13T12:42:44.810Z,973.3
2018-07-13T12:43:46.501Z,973.3
2018-07-13T12:44:48.202Z,973.3
2018-07-13T12:45:49.893Z,973.4
2018-07-13T12:46:51.579Z,973.3
2018-07-13T12:47:53.262Z,973.3
2018-07-13T12:48:54.958Z,973.4
2018-07-13T12:49:56.664Z,973.3
2018-07-13T12:50:58.352Z,973.3
2018-07-13T12:52:00.135Z,973.4
2018-07-13T12:53:01.830Z,973.4
2018-07-13T12:54:03.527Z,973.4
2018-07-13T12:55:05.206Z,973.4
2018-07-13T12:56:06.895Z,973.4
2018-07-13T12:57:08.577Z,973.4
2018-07-13T12:58:10.280Z,973.5
2018-07-13T12:59:11.964Z,973.5
2018-07-13T13:00:13.663Z,973.6
2018-07-13T13:01:15.346Z,973.0
2018-07-13T13:02:17.037Z,973.8
2018-07-13T13:03:18.727Z,973.9
2018-07-13T13:04:20.421Z,974.0
2018-07-13T13:05:22.111Z,974.0
2018-07-13T13:06:23.815Z,973.9
2018-07-13T13:07:25.508Z,973.7
2018-07-13T13:08:27.196Z,973.6
2018-07-13T13:09:28.910Z,973.5
2018-07-13T13:10:30.592Z,973.5
2018-07-13T13:11:32.273Z,973.4
2018-07-13T13:12:33.961Z,973.4
2018-07-13T13:13:35.662Z,973.4
2018-07-13T13:14:37.341Z,973.5
2018-07-13T13:15:39.040Z,973.6
2018-07-13T13:16:40.736Z,973.8
2018-07-13T13:17:42.418Z,974.1
2018-07-13T13:18:44.105Z,973.3
2018-07-13T13:19:45.789Z,973.1
2018-07-13T13:20:47.482Z,974.2
2018-07-13T13:21:49.237Z,974.3
2018-07-13T13:22:50.929Z,974.4
2018-07-13T13:23:52.580Z,974.4
2018-07-13T13:24:54.329Z,974.5
2018-07-13T13:25:55.958Z,974.6
2018-07-13T13:26:57.654Z,974.6
2018-07-13T13:27:59.348Z,974.6
2018-07-13T13:29:01.052Z,974.6
2018-07-13T13:30:02.736Z,974.6
2018-07-13T13:31:04.424Z,974.6
2018-07-13T13:32:06.140Z,974.7
2018-07-13T13:33:07.820Z,972.8
2018-07-13T13:34:09.509Z,973.1
2018-07-13T13:35:11.198Z,974.7
2018-07-13T13:36:12.890Z,974.8
2018-07-13T13:37:14.578Z,974.6